Time;durP1;ratioP1;P1;durP2;ratioP2;P2;SDS_P1;SDS_P2;PMS_P1;PMS_P2;Temp;Humidity;BMP_temperature;BMP_pressure;BME280_temperature;BME280_humidity;BME280_pressure;Samples;Min_cycle;Max_cycle;Signal;HPM_P1;HPM_P2
2021/09/05 00:00:52;;;;;;;31.60;16.67;;;;;;;14.29;79.94;101635.34;4998853;28;20050;-76
2021/09/05 00:03:17;;;;;;;37.35;19.88;;;;;;;14.26;80.06;101638.25;4998971;28;20030;-76
2021/09/05 00:05:43;;;;;;;32.50;17.55;;;;;;;14.25;80.02;101640.06;4999544;28;20062;-76
2021/09/05 00:08:08;;;;;;;36.10;17.95;;;;;;;14.23;80.06;101641.19;4985182;28;20030;-76
2021/09/05 00:10:34;;;;;;;28.85;16.65;;;;;;;14.20;80.26;101640.53;4984529;28;20026;-76
2021/09/05 00:12:59;;;;;;;30.95;16.60;;;;;;;14.14;80.29;101638.56;4999898;28;20511;-76
2021/09/05 00:15:25;;;;;;;33.33;18.30;;;;;;;14.12;80.58;101642.31;4965511;28;20038;-76
2021/09/05 00:17:50;;;;;;;29.95;16.05;;;;;;;14.09;80.27;101632.19;5000990;28;20038;-77
2021/09/05 00:20:15;;;;;;;30.92;16.83;;;;;;;14.06;80.64;101633.31;4986353;28;20038;-77
2021/09/05 00:22:41;;;;;;;31.83;17.25;;;;;;;14.04;80.74;101640.50;5002707;28;20026;-76
2021/09/05 00:25:08;;;;;;;35.40;18.98;;;;;;;14.02;80.66;101643.25;4986429;28;20550;-76
2021/09/05 00:27:34;;;;;;;32.10;17.67;;;;;;;14.01;80.56;101638.19;5003652;28;20030;-77
2021/09/05 00:29:59;;;;;;;33.85;17.88;;;;;;;14.00;80.81;101640.00;4987178;28;20511;-76
2021/09/05 00:32:24;;;;;;;32.10;17.50;;;;;;;13.99;80.59;101634.94;4988306;28;20042;-76
2021/09/05 00:34:50;;;;;;;32.45;17.45;;;;;;;13.97;80.47;101637.69;5002746;28;20381;-76
2021/09/05 00:37:16;;;;;;;31.60;17.63;;;;;;;13.96;80.67;101649.09;5003662;28;20030;-76
2021/09/05 00:39:41;;;;;;;33.33;17.60;;;;;;;13.94;80.31;101642.44;5005437;28;20068;-76
2021/09/05 00:42:07;;;;;;;27.50;14.60;;;;;;;13.92;80.38;101644.34;5002313;28;20582;-76
2021/09/05 00:44:33;;;;;;;33.78;16.92;;;;;;;13.90;80.32;101643.69;5002079;28;20141;-76
2021/09/05 00:46:59;;;;;;;31.63;16.58;;;;;;;13.86;80.36;101635.38;4989978;28;20034;-76
2021/09/05 00:49:24;;;;;;;31.05;18.27;;;;;;;13.83;80.58;101646.13;4972197;28;20030;-77
2021/09/05 00:51:52;;;;;;;30.75;16.90;;;;;;;13.81;80.80;101632.44;4986908;28;20037;-76
2021/09/05 00:54:20;;;;;;;32.55;16.95;;;;;;;13.75;81.12;101638.25;5004072;28;20026;-76
2021/09/05 00:56:45;;;;;;;30.05;17.20;;;;;;;13.74;81.35;101642.66;5004614;28;20121;-76
2021/09/05 00:59:17;;;;;;;31.08;16.42;;;;;;;13.74;81.05;101645.25;5002028;28;20480;-76
2021/09/05 01:01:43;;;;;;;29.85;15.45;;;;;;;13.72;81.01;101639.38;5002977;28;20516;-76
2021/09/05 01:04:09;;;;;;;34.30;17.10;;;;;;;13.69;80.96;101639.69;5004077;28;20129;-76
2021/09/05 01:06:37;;;;;;;33.28;17.42;;;;;;;13.66;81.24;101640.03;5002679;28;20267;-76
2021/09/05 01:09:05;;;;;;;32.65;17.33;;;;;;;13.66;81.27;101639.22;4989189;28;20034;-77
2021/09/05 01:11:34;;;;;;;33.10;17.27;;;;;;;13.64;81.32;101641.97;5001936;28;20062;-77
2021/09/05 01:14:07;;;;;;;31.77;16.83;;;;;;;13.60;81.22;101644.06;5003295;28;20464;-77
2021/09/05 01:16:43;;;;;;;30.77;15.75;;;;;;;13.59;81.35;101644.22;5002527;28;20117;-76
2021/09/05 01:19:32;;;;;;;31.77;16.97;;;;;;;13.55;81.14;101633.28;5000363;28;20801;-76
2021/09/05 01:22:17;;;;;;;29.42;16.27;;;;;;;13.54;81.07;101641.25;4988056;28;20476;-76
2021/09/05 01:25:05;;;;;;;34.03;17.77;;;;;;;13.53;81.14;101639.63;4990217;28;20091;-76
2021/09/05 01:28:00;;;;;;;31.38;16.50;;;;;;;13.50;81.22;101642.53;4952698;28;20051;-76
2021/09/05 01:30:44;;;;;;;35.25;18.67;;;;;;;13.49;81.23;101641.72;5000920;28;20157;-77
2021/09/05 01:33:48;;;;;;;34.92;18.02;;;;;;;13.48;81.25;101650.50;4988849;28;20049;-77
2021/09/05 01:36:33;;;;;;;29.92;17.20;;;;;;;13.48;81.07;101654.91;4986364;28;20404;-77
2021/09/05 01:39:19;;;;;;;31.02;17.17;;;;;;;13.47;80.63;101654.09;4988481;28;20488;-76
2021/09/05 01:42:07;;;;;;;29.40;16.60;;;;;;;13.48;80.62;101654.91;4998834;28;20707;-77
2021/09/05 01:44:51;;;;;;;33.83;17.60;;;;;;;13.45;80.57;101656.03;4987610;28;20073;-77
2021/09/05 01:47:39;;;;;;;32.90;16.00;;;;;;;13.46;80.68;101654.25;4988234;28;20523;-77
2021/09/05 01:50:26;;;;;;;30.92;15.68;;;;;;;13.43;80.36;101655.38;4985607;28;20038;-76
2021/09/05 01:53:12;;;;;;;31.98;17.15;;;;;;;13.40;80.60;101655.69;4978224;28;20049;-78
2021/09/05 01:56:00;;;;;;;31.40;16.63;;;;;;;13.36;80.81;101654.34;4972367;28;20042;-77
2021/09/05 01:59:03;;;;;;;27.80;16.05;;;;;;;13.34;80.98;101661.50;4943693;28;20039;-76
2021/09/05 02:01:48;;;;;;;29.73;16.00;;;;;;;13.31;80.71;101652.19;4951135;28;20046;-77
2021/09/05 02:04:37;;;;;;;30.40;17.33;;;;;;;13.29;80.72;101654.09;4997549;28;20033;-77
2021/09/05 02:07:26;;;;;;;33.05;17.00;;;;;;;13.22;81.18;101658.28;4967544;28;20053;-76
2021/09/05 02:10:14;;;;;;;33.03;17.10;;;;;;;13.21;81.31;101661.88;4986327;28;20046;-77
2021/09/05 02:13:18;;;;;;;34.58;18.42;;;;;;;13.18;81.08;101662.97;4946064;28;20050;-77
2021/09/05 02:16:10;;;;;;;29.02;16.42;;;;;;;13.15;81.37;101660.69;4922540;28;20061;-77
2021/09/05 02:19:01;;;;;;;27.67;15.25;;;;;;;13.15;81.25;101659.88;4966916;28;20135;-76
2021/09/05 02:21:46;;;;;;;29.90;16.05;;;;;;;13.14;81.20;101666.03;4998760;28;20034;-76
2021/09/05 02:24:34;;;;;;;26.88;15.20;;;;;;;13.13;81.13;101659.19;4998592;28;20503;-77
2021/09/05 02:27:19;;;;;;;27.55;15.15;;;;;;;13.11;81.12;101658.53;4988033;28;20104;-77
2021/09/05 02:29:45;;;;;;;28.10;15.90;;;;;;;13.09;80.96;101663.91;4986516;28;20042;-76
2021/09/05 02:32:41;;;;;;;32.35;16.50;;;;;;;13.06;81.25;101664.19;5000907;28;20574;-76
2021/09/05 02:35:29;;;;;;;29.23;15.82;;;;;;;13.03;81.25;101670.53;4969028;28;20669;-76
2021/09/05 02:38:16;;;;;;;29.77;15.32;;;;;;;13.00;81.15;101673.44;5000180;28;20031;-76
2021/09/05 02:41:01;;;;;;;27.13;14.63;;;;;;;12.99;81.04;101677.00;4998321;28;20146;-77
2021/09/05 02:43:59;;;;;;;27.80;15.98;;;;;;;12.96;80.96;101674.72;4973164;28;20046;-76
2021/09/05 02:46:47;;;;;;;29.75;16.25;;;;;;;12.93;80.95;101672.41;4986441;28;20061;-76
2021/09/05 02:49:29;;;;;;;30.08;15.57;;;;;;;12.91;81.07;101670.91;4988304;28;20109;-77
2021/09/05 02:52:29;;;;;;;33.80;15.40;;;;;;;12.88;81.11;101677.22;4984155;28;20519;-77
2021/09/05 02:55:17;;;;;;;29.10;16.02;;;;;;;12.83;81.28;101669.06;4998795;28;20369;-77
2021/09/05 02:58:01;;;;;;;29.00;15.77;;;;;;;12.80;81.33;101667.56;4997314;28;20130;-77
2021/09/05 03:00:48;;;;;;;29.48;15.43;;;;;;;12.79;81.37;101670.31;4998051;28;20386;-75
2021/09/05 03:03:49;;;;;;;25.85;14.70;;;;;;;12.77;81.33;101667.03;4979906;28;20479;-77
2021/09/05 03:06:36;;;;;;;31.52;16.15;;;;;;;12.73;81.46;101669.13;4998656;28;20428;-77
2021/09/05 03:09:36;;;;;;;29.05;14.57;;;;;;;12.70;81.50;101671.22;4999678;28;20030;-77
2021/09/05 03:12:23;;;;;;;28.83;14.73;;;;;;;12.69;81.37;101672.19;4985077;28;20412;-76
2021/09/05 03:15:15;;;;;;;28.02;14.75;;;;;;;12.62;81.66;101670.19;4976649;28;20046;-76
2021/09/05 03:17:59;;;;;;;34.05;16.20;;;;;;;12.59;81.70;101667.88;4986723;28;20049;-75
2021/09/05 03:20:51;;;;;;;28.88;16.38;;;;;;;12.59;81.67;101674.84;4982583;28;20540;-76
2021/09/05 03:23:34;;;;;;;31.95;15.85;;;;;;;12.56;81.66;101665.53;5000833;28;20049;-78
2021/09/05 03:26:22;;;;;;;26.52;15.98;;;;;;;12.56;81.69;101675.94;4983352;28;20042;-76
2021/09/05 03:29:26;;;;;;;27.88;15.13;;;;;;;12.55;81.43;101668.31;4943934;28;20130;-77
2021/09/05 03:32:10;;;;;;;31.13;15.57;;;;;;;12.55;81.32;101671.72;4945050;28;20050;-77
2021/09/05 03:34:55;;;;;;;28.13;16.30;;;;;;;12.55;81.39;101676.13;4981305;28;20497;-76
2021/09/05 03:37:39;;;;;;;34.78;17.05;;;;;;;12.52;81.35;101676.41;4999157;28;20077;-76
2021/09/05 03:40:32;;;;;;;31.88;16.77;;;;;;;12.49;81.71;101684.50;4983012;28;20038;-76
2021/09/05 03:43:20;;;;;;;32.80;15.68;;;;;;;12.42;81.78;101692.88;4996401;28;20065;-75
2021/09/05 03:46:02;;;;;;;30.73;14.48;;;;;;;12.40;81.85;101678.41;5000974;28;20058;-76
2021/09/05 03:49:03;;;;;;;31.45;15.82;;;;;;;12.37;81.81;101683.88;4963885;28;20129;-78
2021/09/05 03:51:29;;;;;;;24.65;14.40;;;;;;;12.32;81.86;101680.91;4974298;28;20503;-77
2021/09/05 03:53:55;;;;;;;28.95;15.60;;;;;;;12.31;82.06;101681.88;5000232;28;20380;-77
2021/09/05 03:56:21;;;;;;;27.48;14.68;;;;;;;12.29;82.02;101681.22;4999334;28;20034;-76
2021/09/05 03:58:51;;;;;;;29.95;16.55;;;;;;;12.26;81.93;101679.69;5000041;28;20037;-75
2021/09/05 04:01:18;;;;;;;30.73;16.08;;;;;;;12.23;82.29;101680.81;4999500;28;20030;-77
2021/09/05 04:03:52;;;;;;;29.75;16.00;;;;;;;12.25;82.19;101686.69;4999648;28;20038;-75
2021/09/05 04:06:19;;;;;;;29.10;14.95;;;;;;;12.24;82.03;101687.66;4999143;28;20384;-77
2021/09/05 04:08:48;;;;;;;30.38;15.77;;;;;;;12.25;81.85;101688.47;4999180;28;20470;-77
2021/09/05 04:11:14;;;;;;;31.48;15.95;;;;;;;12.25;81.69;101689.28;4980128;28;20400;-77
2021/09/05 04:13:39;;;;;;;29.15;15.40;;;;;;;12.24;81.73;101679.88;5000493;28;20040;-76
2021/09/05 04:16:05;;;;;;;33.03;16.98;;;;;;;12.21;81.46;101677.56;5000014;28;20035;-76
2021/09/05 04:18:31;;;;;;;24.65;14.15;;;;;;;12.14;81.56;101680.88;5000527;28;20034;-78
2021/09/05 04:20:56;;;;;;;25.92;14.90;;;;;;;12.05;82.07;101683.38;4985533;28;20035;-76
2021/09/05 04:23:21;;;;;;;27.55;15.85;;;;;;;11.96;82.18;101679.06;5000853;28;20085;-76
2021/09/05 04:25:47;;;;;;;29.83;15.52;;;;;;;11.87;82.32;101680.69;5000312;28;20038;-77
2021/09/05 04:28:12;;;;;;;25.13;14.15;;;;;;;11.84;82.43;101677.56;5000258;28;20026;-76
2021/09/05 04:30:38;;;;;;;32.50;16.02;;;;;;;11.81;82.64;101673.47;4987305;28;20488;-77
2021/09/05 04:33:05;;;;;;;24.65;13.63;;;;;;;11.81;82.63;101683.88;5000034;28;20027;-76
2021/09/05 04:35:31;;;;;;;29.58;15.57;;;;;;;11.84;82.73;101687.94;4999744;28;20046;-76
2021/09/05 04:37:56;;;;;;;25.83;14.52;;;;;;;11.87;82.45;101683.28;5001135;28;20039;-76
2021/09/05 04:40:22;;;;;;;30.00;17.20;;;;;;;11.88;82.26;101690.13;4981478;28;20041;-76
2021/09/05 04:42:47;;;;;;;28.63;15.95;;;;;;;11.90;82.44;101702.19;4983781;28;20503;-77
2021/09/05 04:45:12;;;;;;;31.30;16.75;;;;;;;11.90;82.52;101697.78;4999438;28;20041;-77
2021/09/05 04:47:38;;;;;;;34.45;15.82;;;;;;;11.91;82.17;101696.84;4984708;28;20022;-77
2021/09/05 04:50:04;;;;;;;26.27;14.63;;;;;;;11.91;82.28;101698.63;4984599;28;20415;-76
2021/09/05 04:52:30;;;;;;;26.83;15.48;;;;;;;11.87;82.47;101701.47;4985658;28;20046;-77
2021/09/05 04:54:55;;;;;;;28.75;15.23;;;;;;;11.86;82.79;101706.81;4999578;28;20034;-75
2021/09/05 04:57:21;;;;;;;26.02;14.93;;;;;;;11.85;82.76;101711.19;4985752;28;20577;-77
2021/09/05 04:59:46;;;;;;;28.58;14.30;;;;;;;11.85;82.91;101706.00;4982311;28;20027;-77
2021/09/05 05:02:12;;;;;;;29.52;16.10;;;;;;;11.88;82.49;101715.28;4998570;28;20476;-76
2021/09/05 05:04:37;;;;;;;26.77;14.55;;;;;;;11.87;82.51;101716.25;5001310;28;20038;-77
2021/09/05 05:07:03;;;;;;;28.17;15.18;;;;;;;11.89;82.50;101719.53;5004264;28;20105;-77
2021/09/05 05:09:28;;;;;;;30.38;15.85;;;;;;;11.88;82.42;101721.31;4987867;28;20030;-76
2021/09/05 05:11:54;;;;;;;29.00;14.52;;;;;;;11.89;82.09;101716.94;5004036;28;20041;-77
2021/09/05 05:14:19;;;;;;;28.33;16.42;;;;;;;11.88;82.09;101716.13;5002626;28;20034;-78
2021/09/05 05:16:45;;;;;;;27.63;14.63;;;;;;;11.86;82.66;101720.63;5000644;28;20030;-77
2021/09/05 05:19:10;;;;;;;32.60;14.85;;;;;;;11.88;82.73;101723.91;4989478;28;20030;-79
2021/09/05 05:21:36;;;;;;;28.52;15.15;;;;;;;11.88;82.78;101720.47;5002368;28;20039;-75
2021/09/05 05:24:01;;;;;;;23.80;14.00;;;;;;;11.87;82.79;101726.66;4986074;28;20066;-77
2021/09/05 05:26:27;;;;;;;29.77;16.23;;;;;;;11.86;82.95;101725.81;4986705;28;20034;-78
2021/09/05 05:28:54;;;;;;;30.65;15.65;;;;;;;11.87;83.11;101727.47;4984518;28;20034;-79
2021/09/05 05:31:19;;;;;;;31.55;15.30;;;;;;;11.91;82.97;101729.81;5002555;28;20671;-77
2021/09/05 05:33:45;;;;;;;28.48;15.80;;;;;;;11.91;82.73;101729.81;4985693;28;20041;-80
2021/09/05 05:36:10;;;;;;;25.77;13.93;;;;;;;11.91;83.12;101737.63;5001811;28;20023;-76
2021/09/05 05:38:37;;;;;;;28.35;14.38;;;;;;;11.91;83.18;101735.03;4967009;28;20039;-77
2021/09/05 05:41:03;;;;;;;28.67;14.45;;;;;;;11.88;83.60;101741.28;5004789;28;20035;-76
2021/09/05 05:43:28;;;;;;;25.88;14.43;;;;;;;11.90;83.63;101733.38;4986335;28;20033;-77
2021/09/05 05:45:54;;;;;;;32.05;15.15;;;;;;;11.87;83.87;101730.06;4990773;28;20026;-78
2021/09/05 05:48:19;;;;;;;24.95;13.88;;;;;;;11.90;83.90;101736.78;4984191;28;20410;-76
2021/09/05 05:50:47;;;;;;;24.92;14.73;;;;;;;11.94;83.78;101729.50;5002508;28;20034;-77
2021/09/05 05:53:14;;;;;;;24.70;13.65;;;;;;;11.98;83.99;101730.88;5001120;28;20057;-76
2021/09/05 05:55:40;;;;;;;29.23;15.35;;;;;;;12.02;83.63;101737.44;5002803;28;20038;-78
2021/09/05 05:58:05;;;;;;;28.33;13.90;;;;;;;12.07;83.39;101737.81;5002213;28;20112;-77
2021/09/05 06:00:31;;;;;;;27.10;15.02;;;;;;;12.10;83.13;101734.13;5006795;28;20038;-77
2021/09/05 06:02:56;;;;;;;29.40;14.23;;;;;;;12.14;83.17;101731.09;4992474;28;20026;-76
2021/09/05 06:05:22;;;;;;;25.27;13.70;;;;;;;12.17;83.24;101728.22;5007667;28;20472;-76
2021/09/05 06:07:48;;;;;;;27.85;13.95;;;;;;;12.23;83.29;101729.41;4989607;28;20034;-77
2021/09/05 06:10:13;;;;;;;27.35;14.20;;;;;;;12.27;83.25;101723.75;4991216;28;20089;-77
2021/09/05 06:12:40;;;;;;;28.83;15.73;;;;;;;12.31;83.47;101726.91;5004629;28;20022;-76
2021/09/05 06:15:06;;;;;;;30.33;15.10;;;;;;;12.35;83.42;101728.25;5002544;28;20061;-77
2021/09/05 06:17:31;;;;;;;29.63;16.67;;;;;;;12.40;83.82;101733.03;5001927;28;20435;-76
2021/09/05 06:19:58;;;;;;;30.83;17.65;;;;;;;12.45;83.98;101728.19;4989408;28;20098;-78
2021/09/05 06:22:23;;;;;;;30.55;15.65;;;;;;;12.51;84.07;101732.00;4985349;28;20038;-77
2021/09/05 06:24:49;;;;;;;30.75;16.65;;;;;;;12.57;84.20;101734.03;5001752;28;20515;-78
2021/09/05 06:27:15;;;;;;;37.22;17.75;;;;;;;12.63;84.62;101736.03;4985856;28;20053;-79
2021/09/05 06:29:40;;;;;;;33.72;18.00;;;;;;;12.70;85.19;101733.69;4969826;28;20035;-78
2021/09/05 06:32:06;;;;;;;38.25;18.23;;;;;;;12.80;85.24;101742.22;4985755;28;20038;-76
2021/09/05 06:34:32;;;;;;;36.20;19.00;;;;;;;12.89;85.39;101746.53;4987608;28;20585;-77
2021/09/05 06:36:57;;;;;;;35.80;18.33;;;;;;;13.00;85.48;101738.53;4984029;28;20381;-76
2021/09/05 06:39:22;;;;;;;35.88;18.85;;;;;;;13.15;85.48;101749.22;5002487;28;20038;-75
2021/09/05 06:41:48;;;;;;;35.50;18.45;;;;;;;13.31;85.27;101747.75;5002830;28;20037;-77
2021/09/05 06:44:13;;;;;;;37.22;18.67;;;;;;;13.51;84.85;101748.41;4988763;28;20030;-76
2021/09/05 06:46:39;;;;;;;40.92;21.02;;;;;;;13.71;84.46;101755.06;5002030;28;20038;-77
2021/09/05 06:49:04;;;;;;;44.03;21.23;;;;;;;13.91;83.79;101749.63;5005502;28;20042;-76
2021/09/05 06:51:30;;;;;;;39.17;20.33;;;;;;;14.25;83.29;101752.22;5002311;28;20373;-76
2021/09/05 06:53:55;;;;;;;45.80;22.30;;;;;;;14.68;82.08;101749.63;4988301;28;20038;-77
2021/09/05 06:56:21;;;;;;;39.03;19.60;;;;;;;15.36;80.15;101749.34;4986678;28;20488;-77
2021/09/05 06:58:47;;;;;;;33.47;18.40;;;;;;;16.13;77.17;101753.28;4984186;28;20038;-76
2021/09/05 07:01:12;;;;;;;38.78;19.50;;;;;;;16.79;73.17;101750.34;4986010;28;20397;-76
2021/09/05 07:03:37;;;;;;;39.70;19.38;;;;;;;17.33;71.75;101747.66;5003035;28;20046;-76
2021/09/05 07:06:05;;;;;;;34.38;19.13;;;;;;;17.92;69.86;101749.53;5002473;28;20100;-77
2021/09/05 07:08:30;;;;;;;37.97;18.85;;;;;;;18.36;68.69;101747.84;4984717;28;20041;-77
2021/09/05 07:10:56;;;;;;;37.08;19.60;;;;;;;18.52;68.38;101750.28;4999230;28;20034;-76
2021/09/05 07:13:21;;;;;;;30.90;18.55;;;;;;;19.01;65.90;101746.13;4999627;28;20034;-76
2021/09/05 07:15:46;;;;;;;33.10;19.80;;;;;;;19.18;65.09;101751.94;4965607;28;20456;-77
2021/09/05 07:18:13;;;;;;;32.83;19.02;;;;;;;19.44;65.22;101744.25;5000273;28;20129;-76
2021/09/05 07:20:38;;;;;;;39.55;20.52;;;;;;;19.71;64.30;101747.03;4999227;28;20089;-77
2021/09/05 07:23:03;;;;;;;31.45;19.08;;;;;;;20.00;62.84;101750.44;4997709;28;20592;-77
2021/09/05 07:25:30;;;;;;;34.65;18.58;;;;;;;20.36;61.85;101749.38;4982492;28;20072;-76
2021/09/05 07:27:55;;;;;;;31.90;18.50;;;;;;;20.41;62.82;101749.59;4982790;28;20105;-76
2021/09/05 07:30:21;;;;;;;33.42;18.08;;;;;;;20.82;61.01;101738.16;4990391;28;20030;-77
2021/09/05 07:32:47;;;;;;;30.00;17.40;;;;;;;21.02;60.06;101746.09;5004653;28;20057;-76
2021/09/05 07:35:12;;;;;;;31.02;16.90;;;;;;;21.25;60.50;101744.84;4984035;28;20053;-77
2021/09/05 07:37:38;;;;;;;29.13;17.27;;;;;;;21.37;59.51;101751.94;5004485;28;20568;-77
2021/09/05 07:40:05;;;;;;;32.97;17.73;;;;;;;21.56;57.98;101750.31;4989507;28;20392;-77
2021/09/05 07:42:31;;;;;;;31.75;17.33;;;;;;;21.58;57.35;101753.53;5005327;28;20459;-77
2021/09/05 07:44:58;;;;;;;28.35;16.30;;;;;;;21.49;57.97;101765.34;4991959;28;20417;-76
2021/09/05 07:47:24;;;;;;;32.85;17.48;;;;;;;21.77;57.86;101761.63;5005192;28;20109;-77
2021/09/05 07:49:50;;;;;;;33.13;19.15;;;;;;;21.94;56.83;101761.97;5004910;28;20112;-76
2021/09/05 07:52:15;;;;;;;30.63;17.75;;;;;;;22.12;56.59;101767.41;4989652;28;20551;-76
2021/09/05 07:54:40;;;;;;;33.63;18.55;;;;;;;22.28;56.41;101763.53;4991405;28;20610;-77
2021/09/05 07:57:06;;;;;;;27.17;16.25;;;;;;;22.28;55.50;101763.53;5002674;28;20046;-77
2021/09/05 07:59:31;;;;;;;29.33;17.40;;;;;;;22.32;56.57;101762.06;4988400;28;20035;-78
2021/09/05 08:01:57;;;;;;;28.70;16.88;;;;;;;22.50;54.80;101768.47;5014860;28;20026;-78
2021/09/05 08:04:22;;;;;;;28.95;15.82;;;;;;;22.56;53.83;101772.91;4989125;28;20400;-78
2021/09/05 08:06:48;;;;;;;26.77;15.90;;;;;;;22.68;55.15;101776.50;5004734;28;20038;-77
2021/09/05 08:09:13;;;;;;;29.77;16.75;;;;;;;22.93;54.88;101781.00;5003912;28;20100;-74
2021/09/05 08:11:39;;;;;;;25.75;16.55;;;;;;;23.16;53.11;101777.00;5005629;28;20027;-75
2021/09/05 08:14:04;;;;;;;23.88;15.20;;;;;;;23.37;52.97;101779.25;4988909;28;20488;-77
2021/09/05 08:16:30;;;;;;;28.75;16.00;;;;;;;23.45;53.09;101772.88;4997883;28;20026;-77
2021/09/05 08:18:55;;;;;;;27.08;16.25;;;;;;;23.13;53.69;101781.69;5005994;28;20503;-77
2021/09/05 08:21:21;;;;;;;31.55;17.58;;;;;;;23.37;54.09;101775.78;5012434;28;20046;-75
2021/09/05 08:23:46;;;;;;;29.48;17.60;;;;;;;23.50;53.26;101789.69;5005392;28;20104;-77
2021/09/05 08:26:12;;;;;;;25.70;15.43;;;;;;;23.80;52.46;101781.09;5009939;28;20030;-77
2021/09/05 08:28:39;;;;;;;25.98;16.45;;;;;;;23.95;51.71;101790.50;5007641;28;20096;-79
2021/09/05 08:31:05;;;;;;;30.63;17.23;;;;;;;23.80;53.07;101794.31;5004661;28;20064;-77
2021/09/05 08:33:31;;;;;;;28.05;17.17;;;;;;;24.13;50.67;101797.63;5003854;28;20034;-77
2021/09/05 08:35:57;;;;;;;28.55;17.13;;;;;;;24.01;51.61;101798.38;4989415;28;20185;-78
2021/09/05 08:38:22;;;;;;;24.42;15.18;;;;;;;23.95;51.75;101804.56;4997938;28;20037;-78
2021/09/05 08:40:49;;;;;;;28.45;15.70;;;;;;;24.24;52.12;101807.47;4993075;28;20069;-78
2021/09/05 08:43:17;;;;;;;30.25;17.77;;;;;;;24.23;50.91;101811.16;5007712;28;20042;-77
2021/09/05 08:45:45;;;;;;;27.17;16.90;;;;;;;24.23;51.70;101811.16;4999030;28;20021;-78
2021/09/05 08:48:15;;;;;;;24.60;15.45;;;;;;;24.17;52.04;101812.88;5006996;28;20031;-75
2021/09/05 08:50:42;;;;;;;26.95;16.10;;;;;;;24.33;51.79;101808.78;4999026;28;20033;-75
2021/09/05 08:53:07;;;;;;;29.63;16.88;;;;;;;24.40;50.88;101806.84;4991822;28;20507;-75
2021/09/05 08:55:33;;;;;;;23.80;15.68;;;;;;;24.66;50.34;101816.31;5006542;28;20089;-75
2021/09/05 08:57:59;;;;;;;22.67;14.77;;;;;;;24.90;50.99;101819.03;4988040;28;20052;-75
2021/09/05 09:00:25;;;;;;;25.60;15.88;;;;;;;24.92;50.38;101818.81;5007786;28;20035;-76
2021/09/05 09:02:52;;;;;;;21.58;14.20;;;;;;;25.18;50.16;101810.44;4997306;28;20046;-75
2021/09/05 09:05:30;;;;;;;26.48;16.92;;;;;;;24.61;50.37;101826.00;5014424;28;20030;-75
2021/09/05 09:07:59;;;;;;;28.08;17.15;;;;;;;24.65;50.54;101827.94;5012073;28;20034;-75
2021/09/05 09:10:25;;;;;;;24.08;15.63;;;;;;;24.62;51.53;101827.59;5006479;28;20034;-75
2021/09/05 09:12:50;;;;;;;27.13;16.65;;;;;;;24.73;51.58;101821.53;5014914;28;20029;-75
2021/09/05 09:15:21;;;;;;;26.52;16.55;;;;;;;24.65;51.49;101825.31;5005568;28;20042;-75
2021/09/05 09:17:54;;;;;;;26.50;16.38;;;;;;;24.61;50.61;101829.44;4992705;28;20322;-75
2021/09/05 09:20:43;;;;;;;;;;;;;;;24.67;51.38;101819.78;4990674;28;20034;-74
2021/09/05 09:23:12;;;;;;;26.40;15.75;;;;;;;24.77;51.04;101820.06;5009935;28;19914;-75
2021/09/05 09:25:38;;;;;;;24.95;15.77;;;;;;;24.76;52.00;101828.22;5005679;28;20037;-75
2021/09/05 09:28:27;;;;;;;26.08;15.00;;;;;;;24.79;50.69;101823.28;4990466;28;20688;-76
2021/09/05 09:30:53;;;;;;;31.50;16.27;;;;;;;24.90;51.66;101828.84;4996210;28;20026;-76
2021/09/05 09:33:23;;;;;;;25.48;15.65;;;;;;;24.92;50.41;101821.47;4991007;28;20511;-76
2021/09/05 09:35:52;;;;;;;28.23;16.75;;;;;;;24.72;51.17;101825.22;5005543;28;20049;-75
2021/09/05 09:38:17;;;;;;;26.33;14.70;;;;;;;24.84;50.86;101819.94;4991041;28;20130;-75
2021/09/05 09:40:43;;;;;;;21.75;15.07;;;;;;;24.99;52.04;101820.31;4990181;28;20042;-75
2021/09/05 09:43:17;;;;;;;28.77;15.88;;;;;;;24.85;52.27;101829.53;5005899;28;20121;-76
2021/09/05 09:45:43;;;;;;;29.10;18.17;;;;;;;24.83;50.41;101832.41;5003378;28;20034;-76
2021/09/05 09:48:09;;;;;;;19.25;13.43;;;;;;;24.76;51.45;101825.59;4995705;28;20026;-78
2021/09/05 09:50:41;;;;;;;27.45;16.05;;;;;;;24.77;50.95;101821.88;5004968;28;20121;-76
2021/09/05 09:53:07;;;;;;;29.25;16.80;;;;;;;24.52;53.63;101825.47;4990619;28;20544;-78
2021/09/05 09:55:36;;;;;;;26.63;16.70;;;;;;;24.83;50.98;101824.44;5010793;28;20026;-75
2021/09/05 09:58:02;;;;;;;23.20;15.15;;;;;;;24.99;50.76;101817.66;5001325;28;20050;-75
2021/09/05 10:00:28;;;;;;;23.08;15.27;;;;;;;24.79;50.96;101817.97;5005558;28;20057;-75
2021/09/05 10:02:55;;;;;;;26.05;14.85;;;;;;;24.80;52.53;101818.78;5004965;28;21204;-76
2021/09/05 10:05:21;;;;;;;25.80;16.05;;;;;;;24.78;50.41;101815.56;5004896;28;20041;-75
2021/09/05 10:07:48;;;;;;;23.27;14.60;;;;;;;24.77;51.69;101811.28;4990247;28;20030;-76
2021/09/05 10:10:14;;;;;;;26.98;15.35;;;;;;;24.61;51.07;101808.22;5005484;28;20041;-75
2021/09/05 10:12:40;;;;;;;25.48;14.18;;;;;;;24.61;51.38;101810.88;5005725;28;20022;-76
2021/09/05 10:15:08;;;;;;;30.40;15.07;;;;;;;24.56;51.98;101813.41;4990224;28;20117;-76
2021/09/05 10:17:37;;;;;;;21.77;13.93;;;;;;;24.74;52.86;101811.75;4990585;28;20054;-76
2021/09/05 10:20:03;;;;;;;21.27;13.48;;;;;;;24.85;52.36;101808.31;4990138;28;20100;-76
2021/09/05 10:22:31;;;;;;;30.88;16.80;;;;;;;24.86;50.51;101807.25;4992021;28;20034;-76
2021/09/05 10:25:01;;;;;;;22.15;14.40;;;;;;;24.76;51.20;101810.47;4989357;28;20096;-76
2021/09/05 10:27:30;;;;;;;22.83;15.52;;;;;;;24.89;51.82;101814.78;5008788;28;20053;-76
2021/09/05 10:30:07;;;;;;;25.13;14.88;;;;;;;24.40;51.47;101816.66;5006438;28;20069;-76
2021/09/05 10:33:02;;;;;;;24.73;15.20;;;;;;;24.34;51.27;101806.97;5005081;28;20042;-77
2021/09/05 10:35:30;;;;;;;27.88;14.02;;;;;;;24.37;52.62;101809.94;4985308;28;20054;-76
2021/09/05 10:38:07;;;;;;;22.98;14.80;;;;;;;24.59;51.86;101805.00;5010721;28;20472;-79
2021/09/05 10:40:51;;;;;;;26.15;14.95;;;;;;;24.33;50.98;101802.69;4989994;28;20443;-78
2021/09/05 10:43:17;;;;;;;19.95;13.57;;;;;;;24.28;51.96;101800.72;4984637;28;20050;-78
2021/09/05 10:45:46;;;;;;;22.00;14.43;;;;;;;24.41;51.71;101811.13;5005620;28;20384;-76
2021/09/05 10:48:31;;;;;;;22.85;14.13;;;;;;;24.50;49.62;101803.66;4988734;28;20038;-76
2021/09/05 10:51:07;;;;;;;22.02;13.50;;;;;;;24.53;50.39;101805.09;4990104;28;20034;-78
2021/09/05 10:53:49;;;;;;;18.65;12.75;;;;;;;24.48;51.24;101803.09;5007999;28;20042;-78
2021/09/05 10:56:34;;;;;;;21.65;13.93;;;;;;;24.64;51.25;101799.03;5001592;28;20039;-76
2021/09/05 10:59:11;;;;;;;22.55;14.32;;;;;;;24.95;50.81;101787.34;5005223;28;20038;-76
2021/09/05 11:01:39;;;;;;;18.13;11.27;;;;;;;25.16;51.13;101790.47;4992085;28;20077;-75
2021/09/05 11:04:10;;;;;;;18.88;12.38;;;;;;;25.33;49.91;101794.09;4994763;28;20037;-76
2021/09/05 11:06:46;;;;;;;20.52;12.40;;;;;;;25.19;49.51;101795.34;5005215;28;20046;-76
2021/09/05 11:09:19;;;;;;;22.30;12.88;;;;;;;25.12;49.55;101786.66;4988608;28;20038;-76
2021/09/05 11:12:01;;;;;;;17.40;10.45;;;;;;;25.26;51.06;101793.41;4990622;28;20034;-76
2021/09/05 11:14:40;;;;;;;22.58;14.02;;;;;;;25.25;47.94;101792.59;4999708;28;20065;-76
2021/09/05 11:17:07;;;;;;;18.17;11.40;;;;;;;25.15;51.83;101787.03;5007841;28;20089;-76
2021/09/05 11:19:49;;;;;;;21.27;13.88;;;;;;;25.48;48.24;101783.00;5006283;28;20121;-76
2021/09/05 11:22:45;;;;;;;20.33;12.52;;;;;;;25.49;49.19;101787.28;4993735;28;20026;-76
2021/09/05 11:25:15;;;;;;;16.77;10.40;;;;;;;25.62;50.28;101786.25;4975429;28;20046;-76
2021/09/05 11:28:02;;;;;;;17.70;10.75;;;;;;;25.97;48.41;101785.38;5004951;28;20051;-77
2021/09/05 11:30:39;;;;;;;13.55;9.18;;;;;;;26.00;49.03;101780.41;5004370;28;20061;-77